VALENCIA, VC current weather conditions

sailwx.info

Wind at 1 knots

Air temperature 20.0° C
Dewpoint 14.0° C

Last reported at 2015-Jul-06 05:00 UTC.
Time now 2015-Jul-06 07:05 UTC

Location: N 39°35' W 000°27'.
View on Google Maps.

See reports from other nearby stations

  
Tides and Currents Weather Stations Pressure Air Temp Water Temp Dewpoint Dewpoint Depression Visibility Wind Speed Wind Dir Waves Ship Positions
date/time (UTC)wind fromknots sea level pressurealtimeterstation pressurevisibilityair tempwater tempwave heightnotes
2015-Jul-06 05:00 20.0
2015-Jul-06 04:00 360 6 5.421.0
2015-Jul-06 03:00 350 5 5.421.0
2015-Jul-06 02:00 360 5 21.0
2015-Jul-06 01:00 350 2 21.0
2015-Jul-06 00:00 21.0
2015-Jul-05 23:00 22.0
2015-Jul-05 22:00 23.0
2015-Jul-05 21:00 24.0
2015-Jul-05 20:00 120 2 27.0
2015-Jul-05 19:00 110 5 28.0
2015-Jul-05 18:00 120 8 29.0
2015-Jul-05 17:00 110 8 31.0
2015-Jul-05 16:00 120 10 32.0
2015-Jul-05 15:00 100 10 32.0
2015-Jul-05 14:00 100 11 32.0
2015-Jul-05 13:00 110 11 33.0
2015-Jul-05 12:00 120 9 34.0
2015-Jul-05 11:00 170 1 35.0
2015-Jul-05 10:00 33.0
2015-Jul-05 09:00 31.0
2015-Jul-05 08:00 29.0
2015-Jul-05 07:00 26.0
2015-Jul-05 06:00 22.0
2015-Jul-05 05:00 18.0
2015-Jul-05 04:00 19.0
2015-Jul-05 02:00 20.0
2015-Jul-05 01:00 21.0
2015-Jul-05 00:00 350 2 21.0
2015-Jul-04 23:00 350 3 22.0
2015-Jul-04 22:00 350 3 23.0
2015-Jul-04 21:00 320 1 24.0
2015-Jul-04 20:00 26.0
2015-Jul-04 19:00 110 5 27.0
2015-Jul-04 18:00 110 9 29.0
2015-Jul-04 17:00 120 7 31.0
2015-Jul-04 16:00 110 10 31.0
2015-Jul-04 15:00 100 9 32.0
2015-Jul-04 14:00 110 10 31.0
2015-Jul-04 13:00 130 10 32.0
2015-Jul-04 12:00 110 8 31.0
2015-Jul-04 11:00 120 10 31.0
2015-Jul-04 10:00 130 5 30.0
2015-Jul-04 09:00 250 3 2.729.0
2015-Jul-04 08:00 260 3 28.0
2015-Jul-04 07:00 290 3 27.0